CYTZ/YTZ METAR and TAF weather

Enter ICAO airport designator
Station Type Date Time Source
CYTZ METAR 2022/07/03 14:00 UTC NOAA

CYTZ 031400Z AUTO 19010KT 9SM CLR 18/11 A3013 RMK SLP205 DENSITY ALT 500FT


Station Type Date Time Source
CYTZ Decoded METAR 2022/07/03 14:00 UTC NOAA

Toronto Island Airport Automated Reporting Station, Canada (CYTZ) 43-38N 079-24W
Jul 03, 2022 - 10:00 AM EDT / 2022.07.03 1400 UTC
Wind: from the S (190 degrees) at 12 MPH (10 KT):0
Visibility: 9 mile(s):0
Sky conditions: clear
Temperature: 64 F (18 C)
Dew Point: 51 F (11 C)
Relative Humidity: 63%
Pressure (altimeter): 30.13 in. Hg (1020 hPa)
ob: CYTZ 031400Z AUTO 19010KT 9SM CLR 18/11 A3013 RMK SLP205 DENSITY ALT 500FT
cycle: 14

Station Type Date Time Source
CYTZ TAF 2022/07/03 14:44 UTC NOAA

TAF CYTZ 031340Z 0314/0414 32012KT P6SM SKC
BECMG 0317/0319 25008KT
BECMG 0322/0324 VRB03KT
FM040700 VRB03KT P6SM BKN070
FM041100 VRB03KT P6SM FEW080 BKN240
RMK FCST BASED ON AUTO OBS. NXT FCST BY 032000Z

Example: see airport list